Main page
METAR-TAF:

METAR-TAF

Airports :

El Alto International Airport

La Paz, Bolivia

latitude: 16-31S, longitude: 068-11W, elevation: 4058 m

Current weather observation

The report was made 1 hour and 1 minutes ago, at 16:00 UTC
Wind 5 kt from the West/Southwest
Temperature 12°C
Humidity 16%
Pressure 1040 hPa
Visibility 10 km or more
Few clouds at a height of 1700 ft

METAR: SLLP 151600Z 24005KT 9999 FEW017 12/M13 Q1040

Time: 13:01 (17:01 UTC)

Forecast

The report was made 7 hours and 1 minutes ago, at 10:00 UTC
Forecast valid from 15 at 12 UTC to 16 at 12 UTC
Wind 5 kt from the West/Southwest
Visibility 10 km or more
Becoming
from 15 at 14 UTC to 15 at 16 UTC
Wind 10 kt from the West/Southwest
Probability 30% :
Temporary
from 15 at 18 UTC to 15 at 21 UTC
Wind 10 kt from the Southeast
Becoming
from 16 at 03 UTC to 16 at 05 UTC
Wind 5 kt from the East/Northeast

TAF: SLLP 151000Z 1512/1612 24005KT 9999 NSC TX17/1519Z TNM03/1611Z BECMG 1514/1516 24010KT PROB30 TEMPO 1518/1521 13010KT BECMG 1603/1605 06005KT

Weather observations and forecasts of more than 4000 airports (METAR and TAF reports).

The available stations are represented by yellow and red dots on the map.

Hover mouse over dot to see the name of the station.

Then click to see weather observations and forecasts.

To change the map : click on the green buttons with a black cross to zoom in, on the green button with a dash to zoom out, or on the green arrows for adjacent maps.


METAR-TAF: